createdAt,value
2018-01-10T00:00:26.301Z,20.30
2018-01-10T00:01:26.269Z,20.20
2018-01-10T00:02:26.250Z,18.50
2018-01-10T00:03:26.187Z,19.40
2018-01-10T00:04:26.147Z,21.20
2018-01-10T00:05:26.108Z,21.10
2018-01-10T00:06:26.310Z,21.70
2018-01-10T00:07:26.072Z,21.40
2018-01-10T00:08:25.988Z,20.10
2018-01-10T00:09:25.959Z,20.60
2018-01-10T00:10:25.912Z,21.10
2018-01-10T00:11:25.873Z,21.90
2018-01-10T00:12:25.870Z,21.30
2018-01-10T00:13:25.818Z,21.00
2018-01-10T00:14:25.756Z,20.30
2018-01-10T00:15:25.718Z,21.20
2018-01-10T00:16:25.676Z,20.90
2018-01-10T00:17:25.642Z,21.80
2018-01-10T00:18:25.598Z,22.00
2018-01-10T00:19:25.624Z,22.60
2018-01-10T00:20:25.585Z,21.10
2018-01-10T00:21:25.486Z,21.20
2018-01-10T00:22:25.449Z,21.00
2018-01-10T00:23:25.416Z,21.90
2018-01-10T00:24:25.391Z,21.30
2018-01-10T00:25:25.325Z,21.20
2018-01-10T00:26:25.309Z,21.50
2018-01-10T00:27:25.260Z,22.30
2018-01-10T00:28:25.215Z,21.90
2018-01-10T00:29:25.165Z,21.10
2018-01-10T00:30:25.186Z,21.70
2018-01-10T00:31:25.106Z,21.80
2018-01-10T00:32:25.060Z,21.30
2018-01-10T00:33:25.034Z,21.80
2018-01-10T00:34:24.970Z,21.30
2018-01-10T00:35:24.949Z,20.90
2018-01-10T00:36:24.944Z,21.30
2018-01-10T00:37:24.870Z,21.50
2018-01-10T00:38:24.814Z,21.90
2018-01-10T00:39:24.784Z,21.40
2018-01-10T00:40:24.747Z,21.40
2018-01-10T00:41:24.709Z,22.00
2018-01-10T00:42:24.673Z,21.50
2018-01-10T00:43:24.618Z,21.10
2018-01-10T00:44:24.577Z,22.20
2018-01-10T00:45:24.539Z,20.30
2018-01-10T00:46:24.522Z,21.50
2018-01-10T00:47:24.461Z,22.50
2018-01-10T00:48:24.424Z,21.90
2018-01-10T00:49:24.389Z,21.60
2018-01-10T00:50:24.355Z,20.30
2018-01-10T00:51:24.304Z,19.90
2018-01-10T00:52:24.263Z,19.60
2018-01-10T00:53:24.224Z,19.70
2018-01-10T00:54:24.192Z,20.10
2018-01-10T00:55:24.151Z,19.20
2018-01-10T00:56:24.138Z,20.40
2018-01-10T00:57:24.073Z,20.90
2018-01-10T00:58:24.033Z,20.20
2018-01-10T00:59:23.992Z,20.80
2018-01-10T01:00:23.958Z,19.70
2018-01-10T01:01:23.915Z,19.20
2018-01-10T01:02:23.879Z,19.10
2018-01-10T01:03:23.836Z,20.70
2018-01-10T01:04:23.801Z,20.10
2018-01-10T01:05:23.757Z,20.30
2018-01-10T01:06:23.748Z,20.00
2018-01-10T01:07:23.678Z,20.70
2018-01-10T01:08:23.655Z,20.90
2018-01-10T01:09:23.817Z,21.70
2018-01-10T01:10:23.586Z,20.40
2018-01-10T01:11:23.519Z,20.70
2018-01-10T01:12:23.483Z,20.80
2018-01-10T01:13:23.440Z,21.30
2018-01-10T01:14:23.414Z,20.70
2018-01-10T01:15:23.362Z,21.70
2018-01-10T01:16:23.341Z,21.80
2018-01-10T01:17:23.285Z,20.60
2018-01-10T01:18:23.243Z,20.80
2018-01-10T01:19:23.216Z,21.50
2018-01-10T01:20:23.165Z,22.00
2018-01-10T01:21:23.617Z,22.60
2018-01-10T01:22:23.088Z,21.10
2018-01-10T01:23:23.048Z,21.90
2018-01-10T01:24:23.043Z,21.90
2018-01-10T01:25:22.973Z,22.50
2018-01-10T01:26:22.929Z,22.10
2018-01-10T01:27:22.894Z,21.60
2018-01-10T01:28:22.851Z,22.00
2018-01-10T01:29:22.811Z,21.10
2018-01-10T01:30:22.773Z,22.00
2018-01-10T01:31:22.737Z,22.70
2018-01-10T01:32:22.696Z,22.10
2018-01-10T01:33:22.702Z,22.40
2018-01-10T01:34:22.625Z,22.00
2018-01-10T01:35:22.578Z,21.30
2018-01-10T01:36:22.573Z,21.30
2018-01-10T01:37:22.500Z,22.00
2018-01-10T01:38:22.458Z,21.80
2018-01-10T01:39:22.423Z,21.10
2018-01-10T01:40:22.420Z,22.50
2018-01-10T01:41:22.343Z,22.20
2018-01-10T01:42:22.306Z,21.70
2018-01-10T01:43:22.276Z,20.40
2018-01-10T01:44:22.257Z,21.10
2018-01-10T01:45:22.192Z,19.70
2018-01-10T01:46:22.149Z,20.00
2018-01-10T01:47:22.107Z,19.40
2018-01-10T01:48:22.093Z,20.40
2018-01-10T01:49:22.028Z,20.00
2018-01-10T01:50:22.008Z,19.90
2018-01-10T01:51:21.952Z,18.40
2018-01-10T01:52:21.912Z,19.60
2018-01-10T01:53:21.873Z,20.30
2018-01-10T01:54:21.839Z,20.30
2018-01-10T01:55:21.794Z,20.20
2018-01-10T01:56:21.754Z,19.80
2018-01-10T01:57:21.714Z,19.50
2018-01-10T01:58:21.694Z,18.90
2018-01-10T01:59:21.636Z,18.60
2018-01-10T02:00:25.284Z,19.00
2018-01-10T02:01:22.279Z,19.40
2018-01-10T02:02:21.521Z,19.60
2018-01-10T02:03:21.488Z,19.10
2018-01-10T02:04:21.442Z,19.20
2018-01-10T02:05:21.406Z,19.30
2018-01-10T02:06:21.371Z,18.30
2018-01-10T02:07:21.329Z,18.70
2018-01-10T02:08:21.298Z,18.00
2018-01-10T02:09:21.251Z,19.00
2018-01-10T02:10:21.208Z,18.40
2018-01-10T02:11:21.168Z,17.90
2018-01-10T02:12:21.126Z,18.10
2018-01-10T02:13:21.092Z,19.10
2018-01-10T02:14:21.073Z,18.00
2018-01-10T02:15:21.013Z,18.10
2018-01-10T02:16:20.984Z,16.80
2018-01-10T02:17:20.933Z,16.80
2018-01-10T02:18:20.897Z,16.10
2018-01-10T02:19:20.854Z,16.90
2018-01-10T02:20:20.825Z,17.50
2018-01-10T02:21:20.790Z,17.50
2018-01-10T02:22:20.741Z,16.50
2018-01-10T02:23:20.700Z,16.60
2018-01-10T02:24:20.662Z,16.30
2018-01-10T02:25:20.619Z,18.00
2018-01-10T02:26:20.583Z,16.40
2018-01-10T02:27:20.546Z,17.20
2018-01-10T02:28:20.506Z,17.00
2018-01-10T02:29:20.464Z,17.20
2018-01-10T02:30:20.449Z,17.50
2018-01-10T02:31:20.387Z,17.30
2018-01-10T02:32:20.350Z,16.80
2018-01-10T02:33:20.313Z,17.00
2018-01-10T02:34:20.278Z,16.80
2018-01-10T02:35:20.233Z,16.60
2018-01-10T02:36:20.191Z,16.10
2018-01-10T02:37:20.159Z,15.70
2018-01-10T02:38:20.118Z,15.00
2018-01-10T02:39:20.100Z,15.30
2018-01-10T02:40:20.036Z,15.70
2018-01-10T02:41:19.997Z,14.50
2018-01-10T02:42:20.035Z,15.50
2018-01-10T02:43:19.925Z,15.40
2018-01-10T02:44:19.881Z,15.60
2018-01-10T02:45:19.843Z,15.40
2018-01-10T02:46:19.817Z,15.00
2018-01-10T02:47:19.770Z,14.70
2018-01-10T02:48:19.726Z,15.50
2018-01-10T02:49:19.710Z,15.40
2018-01-10T02:50:19.681Z,15.20
2018-01-10T02:51:19.612Z,15.00
2018-01-10T02:52:19.570Z,15.40
2018-01-10T02:53:19.531Z,14.40
2018-01-10T02:54:19.523Z,13.80
2018-01-10T02:55:19.481Z,13.60
2018-01-10T02:56:19.415Z,14.30
2018-01-10T02:57:19.394Z,13.70
2018-01-10T02:58:19.337Z,13.80
2018-01-10T02:59:19.299Z,14.10
2018-01-10T03:00:19.293Z,14.50
2018-01-10T03:01:19.223Z,14.20
2018-01-10T03:02:19.208Z,13.80
2018-01-10T03:03:19.640Z,13.70
2018-01-10T03:04:19.141Z,14.40
2018-01-10T03:05:19.086Z,14.40
2018-01-10T03:06:19.060Z,14.90
2018-01-10T03:07:18.989Z,14.30
2018-01-10T03:08:18.978Z,14.10
2018-01-10T03:09:18.926Z,14.00
2018-01-10T03:10:18.923Z,14.60
2018-01-10T03:11:18.837Z,13.50
2018-01-10T03:12:18.795Z,15.80
2018-01-10T03:13:18.757Z,14.80
2018-01-10T03:14:18.724Z,14.50
2018-01-10T03:15:18.719Z,14.70
2018-01-10T03:16:18.647Z,14.10
2018-01-10T03:17:18.601Z,14.40
2018-01-10T03:18:18.565Z,14.10
2018-01-10T03:19:18.537Z,13.20
2018-01-10T03:20:18.484Z,14.30
2018-01-10T03:21:18.448Z,13.80
2018-01-10T03:22:18.408Z,12.50
2018-01-10T03:23:18.386Z,14.40
2018-01-10T03:24:18.336Z,13.80
2018-01-10T03:25:18.294Z,13.60
2018-01-10T03:26:18.254Z,13.30
2018-01-10T03:27:18.218Z,13.60
2018-01-10T03:28:18.175Z,12.80
2018-01-10T03:29:18.138Z,13.00
2018-01-10T03:30:18.097Z,13.10
2018-01-10T03:31:18.519Z,13.80
2018-01-10T03:32:18.036Z,12.30
2018-01-10T03:33:17.982Z,12.10
2018-01-10T03:34:17.943Z,11.80
2018-01-10T03:35:17.905Z,12.30
2018-01-10T03:36:18.563Z,13.30
2018-01-10T03:37:17.850Z,12.60
2018-01-10T03:38:17.789Z,12.30
2018-01-10T03:39:17.752Z,12.40
2018-01-10T03:40:17.717Z,11.50
2018-01-10T03:41:17.675Z,12.40
2018-01-10T03:42:17.870Z,12.60
2018-01-10T03:43:17.598Z,12.40
2018-01-10T03:44:17.871Z,11.70
2018-01-10T03:45:17.531Z,12.30
2018-01-10T03:46:17.490Z,13.10
2018-01-10T03:47:17.472Z,12.70
2018-01-10T03:48:17.401Z,11.90
2018-01-10T03:49:17.364Z,12.40
2018-01-10T03:50:17.329Z,11.30
2018-01-10T03:51:17.301Z,12.30
2018-01-10T03:52:17.254Z,12.10
2018-01-10T03:53:17.215Z,11.40
2018-01-10T03:54:17.186Z,11.50
2018-01-10T03:55:17.136Z,11.70
2018-01-10T03:56:17.097Z,11.10
2018-01-10T03:57:17.054Z,10.80
2018-01-10T03:58:17.013Z,10.60
2018-01-10T03:59:16.975Z,11.30
2018-01-10T04:00:16.940Z,11.20
2018-01-10T04:01:16.903Z,10.80
2018-01-10T04:02:16.860Z,11.70
2018-01-10T04:03:16.825Z,11.40
2018-01-10T04:04:16.785Z,10.80
2018-01-10T04:05:16.758Z,10.40
2018-01-10T04:06:16.758Z,10.40
2018-01-10T04:07:16.673Z,10.00
2018-01-10T04:08:16.638Z,9.90
2018-01-10T04:09:16.591Z,10.50
2018-01-10T04:10:16.560Z,10.40
2018-01-10T04:11:16.539Z,10.20
2018-01-10T04:12:16.484Z,10.40
2018-01-10T04:13:16.441Z,10.00
2018-01-10T04:14:16.409Z,10.80
2018-01-10T04:15:16.378Z,11.30
2018-01-10T04:16:16.321Z,11.10
2018-01-10T04:17:16.280Z,11.80
2018-01-10T04:18:16.244Z,10.70
2018-01-10T04:19:16.229Z,11.10
2018-01-10T04:20:16.165Z,11.70
2018-01-10T04:21:16.127Z,11.60
2018-01-10T04:22:16.087Z,11.40
2018-01-10T04:23:16.049Z,12.10
2018-01-10T04:24:16.010Z,11.50
2018-01-10T04:25:15.993Z,11.70
2018-01-10T04:26:15.960Z,10.80
2018-01-10T04:27:15.895Z,12.00
2018-01-10T04:28:15.878Z,11.30
2018-01-10T04:29:15.830Z,10.90
2018-01-10T04:30:15.785Z,12.00
2018-01-10T04:31:15.745Z,11.30
2018-01-10T04:32:15.704Z,10.80
2018-01-10T04:33:15.668Z,11.70
2018-01-10T04:34:15.624Z,10.70
2018-01-10T04:35:15.611Z,11.00
2018-01-10T04:36:15.546Z,11.40
2018-01-10T04:37:15.542Z,10.80
2018-01-10T04:38:15.495Z,11.20
2018-01-10T04:39:15.438Z,11.20
2018-01-10T04:40:15.410Z,11.20
2018-01-10T04:41:15.374Z,11.60
2018-01-10T04:42:15.324Z,11.10
2018-01-10T04:43:15.281Z,10.90
2018-01-10T04:44:15.237Z,11.20
2018-01-10T04:45:15.199Z,11.00
2018-01-10T04:46:15.172Z,11.20
2018-01-10T04:47:15.130Z,11.00
2018-01-10T04:48:15.097Z,11.60
2018-01-10T04:49:15.049Z,11.30
2018-01-10T04:50:15.042Z,10.00
2018-01-10T04:51:14.969Z,11.00
2018-01-10T04:52:14.938Z,11.10
2018-01-10T04:53:14.890Z,10.70
2018-01-10T04:54:14.893Z,10.70
2018-01-10T04:55:14.817Z,10.70
2018-01-10T04:56:14.799Z,11.00
2018-01-10T04:57:14.778Z,11.00
2018-01-10T04:58:14.724Z,10.40
2018-01-10T04:59:14.662Z,11.10
2018-01-10T05:00:14.638Z,11.30
2018-01-10T05:01:14.586Z,11.00
2018-01-10T05:02:14.542Z,11.00
2018-01-10T05:03:14.505Z,10.30
2018-01-10T05:04:14.477Z,11.10
2018-01-10T05:05:14.425Z,11.00
2018-01-10T05:06:14.398Z,11.10
2018-01-10T05:07:14.348Z,11.00
2018-01-10T05:08:14.320Z,10.90
2018-01-10T05:09:14.279Z,10.70
2018-01-10T05:10:14.233Z,12.00
2018-01-10T05:11:14.195Z,11.40
2018-01-10T05:12:14.185Z,11.30
2018-01-10T05:13:14.126Z,11.40
2018-01-10T05:14:14.080Z,12.40
2018-01-10T05:15:14.042Z,12.00
2018-01-10T05:16:14.005Z,13.20
2018-01-10T05:17:13.962Z,12.00
2018-01-10T05:18:13.923Z,12.50
2018-01-10T05:19:13.884Z,11.80
2018-01-10T05:20:13.846Z,11.40
2018-01-10T05:21:13.807Z,12.20
2018-01-10T05:22:13.767Z,11.70
2018-01-10T05:23:13.730Z,12.20
2018-01-10T05:24:13.691Z,12.50
2018-01-10T05:25:13.652Z,11.90
2018-01-10T05:26:13.612Z,11.90
2018-01-10T05:27:13.906Z,11.60
2018-01-10T05:28:13.551Z,12.00
2018-01-10T05:29:13.497Z,11.60
2018-01-10T05:30:13.530Z,11.30
2018-01-10T05:31:13.455Z,11.50
2018-01-10T05:32:13.380Z,10.90
2018-01-10T05:33:14.182Z,10.60
2018-01-10T05:34:13.328Z,10.70
2018-01-10T05:35:13.271Z,9.80
2018-01-10T05:36:13.254Z,10.40
2018-01-10T05:37:13.204Z,9.80
2018-01-10T05:38:13.164Z,10.20
2018-01-10T05:39:13.113Z,10.50
2018-01-10T05:40:13.077Z,10.10
2018-01-10T05:41:13.468Z,10.10
2018-01-10T05:42:12.996Z,10.00
2018-01-10T05:43:12.954Z,9.40
2018-01-10T05:44:12.915Z,9.30
2018-01-10T05:45:12.878Z,9.30
2018-01-10T05:46:12.858Z,9.20
2018-01-10T05:47:12.800Z,9.30
2018-01-10T05:48:12.764Z,8.70
2018-01-10T05:49:12.722Z,8.30
2018-01-10T05:50:12.685Z,9.10
2018-01-10T05:51:12.646Z,8.20
2018-01-10T05:52:12.632Z,9.10
2018-01-10T05:53:12.569Z,9.10
2018-01-10T05:54:13.306Z,9.40
2018-01-10T05:55:13.286Z,9.10
2018-01-10T05:56:12.453Z,9.10
2018-01-10T05:57:12.413Z,9.40
2018-01-10T05:58:12.376Z,9.90
2018-01-10T05:59:12.340Z,9.20
2018-01-10T06:00:12.297Z,9.20
2018-01-10T06:01:12.270Z,9.60
2018-01-10T06:02:12.218Z,9.50
2018-01-10T06:03:12.181Z,8.70
2018-01-10T06:04:12.160Z,9.60
2018-01-10T06:05:12.106Z,8.90
2018-01-10T06:06:12.065Z,8.90
2018-01-10T06:07:12.062Z,9.70
2018-01-10T06:08:12.000Z,9.60
2018-01-10T06:09:11.969Z,9.40
2018-01-10T06:10:11.910Z,9.40
2018-01-10T06:11:11.872Z,8.70
2018-01-10T06:12:11.838Z,9.30
2018-01-10T06:13:11.821Z,9.90
2018-01-10T06:14:11.802Z,10.30
2018-01-10T06:15:11.716Z,9.50
2018-01-10T06:16:11.679Z,9.50
2018-01-10T06:17:11.671Z,9.30
2018-01-10T06:18:11.601Z,9.20
2018-01-10T06:19:11.611Z,9.10
2018-01-10T06:20:11.524Z,10.10
2018-01-10T06:21:11.491Z,10.00
2018-01-10T06:22:11.446Z,10.30
2018-01-10T06:23:11.407Z,10.20
2018-01-10T06:24:11.369Z,10.20
2018-01-10T06:25:11.330Z,9.40
2018-01-10T06:26:11.300Z,9.60
2018-01-10T06:27:11.249Z,9.60
2018-01-10T06:28:11.213Z,9.60
2018-01-10T06:29:11.174Z,9.90
2018-01-10T06:30:11.138Z,10.20
2018-01-10T06:31:11.121Z,10.00
2018-01-10T06:32:11.069Z,10.10
2018-01-10T06:33:11.036Z,10.10
2018-01-10T06:34:11.000Z,10.00
2018-01-10T06:35:10.940Z,9.90
2018-01-10T06:36:10.901Z,9.90
2018-01-10T06:37:10.897Z,9.70
2018-01-10T06:38:10.827Z,10.30
2018-01-10T06:39:10.788Z,10.30
2018-01-10T06:40:10.747Z,10.20
2018-01-10T06:41:10.707Z,10.00
2018-01-10T06:42:10.702Z,10.30
2018-01-10T06:43:10.631Z,9.90
2018-01-10T06:44:10.591Z,8.70
2018-01-10T06:45:10.556Z,9.40
2018-01-10T06:46:10.515Z,8.60
2018-01-10T06:47:10.476Z,8.60
2018-01-10T06:48:10.448Z,8.50
2018-01-10T06:49:10.398Z,8.40
2018-01-10T06:50:10.369Z,7.90
2018-01-10T06:51:10.327Z,8.60
2018-01-10T06:52:10.280Z,8.60
2018-01-10T06:53:10.243Z,8.80
2018-01-10T06:54:10.212Z,7.80
2018-01-10T06:55:10.167Z,8.10
2018-01-10T06:56:10.126Z,7.80
2018-01-10T06:57:10.086Z,7.00
2018-01-10T06:58:10.049Z,6.90
2018-01-10T06:59:10.212Z,6.60
2018-01-10T07:00:09.968Z,6.20
2018-01-10T07:01:09.935Z,7.20
2018-01-10T07:02:09.894Z,7.10
2018-01-10T07:03:09.854Z,7.30
2018-01-10T07:04:09.824Z,6.90
2018-01-10T07:05:09.798Z,7.50
2018-01-10T07:06:09.738Z,6.80
2018-01-10T07:07:09.699Z,7.70
2018-01-10T07:08:09.658Z,7.90
2018-01-10T07:09:09.621Z,7.30
2018-01-10T07:10:09.608Z,7.50
2018-01-10T07:11:09.544Z,7.10
2018-01-10T07:12:09.504Z,7.10
2018-01-10T07:13:09.467Z,7.40
2018-01-10T07:14:09.426Z,7.70
2018-01-10T07:15:09.389Z,7.00
2018-01-10T07:16:09.358Z,7.40
2018-01-10T07:17:09.311Z,7.50
2018-01-10T07:18:09.293Z,6.90
2018-01-10T07:19:09.233Z,6.70
2018-01-10T07:20:09.195Z,6.60
2018-01-10T07:21:09.156Z,7.20
2018-01-10T07:22:09.119Z,6.50
2018-01-10T07:23:09.078Z,6.70
2018-01-10T07:24:09.039Z,6.50
2018-01-10T07:25:09.000Z,6.50
2018-01-10T07:26:08.962Z,6.40
2018-01-10T07:27:08.923Z,5.70
2018-01-10T07:28:08.882Z,5.80
2018-01-10T07:29:08.845Z,6.80
2018-01-10T07:30:08.806Z,6.00
2018-01-10T07:31:08.768Z,5.90
2018-01-10T07:32:08.728Z,5.90
2018-01-10T07:33:08.690Z,5.60
2018-01-10T07:34:08.652Z,6.20
2018-01-10T07:35:08.613Z,5.30
2018-01-10T07:36:08.575Z,6.00
2018-01-10T07:37:08.536Z,5.00
2018-01-10T07:38:08.497Z,5.30
2018-01-10T07:39:08.457Z,5.70
2018-01-10T07:40:08.418Z,5.90
2018-01-10T07:41:08.379Z,5.20
2018-01-10T07:42:08.341Z,5.80
2018-01-10T07:43:08.303Z,5.60
2018-01-10T07:44:08.261Z,5.10
2018-01-10T07:45:08.224Z,5.60
2018-01-10T07:46:08.187Z,5.20
2018-01-10T07:47:08.148Z,5.50
2018-01-10T07:48:08.133Z,5.90
2018-01-10T07:49:08.070Z,6.20
2018-01-10T07:50:08.031Z,6.10
2018-01-10T07:51:07.992Z,5.90
2018-01-10T07:52:07.951Z,6.50
2018-01-10T07:53:07.913Z,6.10
2018-01-10T07:54:07.872Z,6.50
2018-01-10T07:55:07.835Z,6.30
2018-01-10T07:56:07.796Z,6.70
2018-01-10T07:57:07.758Z,6.20
2018-01-10T07:58:07.722Z,6.60
2018-01-10T07:59:07.677Z,6.30
2018-01-10T08:00:07.641Z,6.00
2018-01-10T08:01:07.600Z,6.10
2018-01-10T08:02:07.606Z,6.60
2018-01-10T08:03:07.525Z,6.30
2018-01-10T08:04:07.482Z,6.10
2018-01-10T08:05:07.444Z,5.60
2018-01-10T08:06:07.406Z,5.40
2018-01-10T08:07:07.369Z,5.60
2018-01-10T08:08:07.330Z,5.80
2018-01-10T08:09:07.291Z,6.20
2018-01-10T08:10:07.249Z,6.60
2018-01-10T08:11:07.210Z,6.60
2018-01-10T08:12:07.171Z,6.20
2018-01-10T08:13:07.132Z,6.40
2018-01-10T08:14:07.093Z,6.60
2018-01-10T08:15:07.054Z,6.10
2018-01-10T08:16:07.014Z,7.10
2018-01-10T08:17:06.976Z,6.00
2018-01-10T08:18:06.940Z,6.90
2018-01-10T08:19:06.899Z,6.50
2018-01-10T08:20:06.859Z,7.50
2018-01-10T08:21:06.860Z,7.30
2018-01-10T08:22:06.782Z,7.60
2018-01-10T08:23:06.743Z,7.20
2018-01-10T08:24:06.702Z,7.70
2018-01-10T08:25:06.664Z,7.50
2018-01-10T08:26:06.626Z,6.80
2018-01-10T08:27:06.586Z,7.40
2018-01-10T08:28:06.546Z,6.50
2018-01-10T08:29:06.510Z,7.10
2018-01-10T08:30:06.469Z,7.30
2018-01-10T08:31:06.430Z,6.50
2018-01-10T08:32:06.393Z,6.50
2018-01-10T08:33:06.353Z,6.30
2018-01-10T08:34:06.314Z,5.90
2018-01-10T08:35:06.272Z,6.50
2018-01-10T08:36:06.237Z,5.70
2018-01-10T08:37:06.196Z,6.70
2018-01-10T08:38:06.160Z,5.70
2018-01-10T08:39:06.120Z,5.50
2018-01-10T08:40:06.082Z,5.00
2018-01-10T08:41:06.040Z,5.30
2018-01-10T08:42:06.003Z,5.70
2018-01-10T08:43:05.964Z,4.60
2018-01-10T08:44:05.924Z,5.40
2018-01-10T08:45:05.888Z,6.00
2018-01-10T08:46:05.849Z,4.90
2018-01-10T08:47:05.809Z,6.00
2018-01-10T08:48:05.768Z,5.70
2018-01-10T08:49:05.737Z,6.40
2018-01-10T08:50:05.692Z,5.60
2018-01-10T08:51:05.653Z,5.60
2018-01-10T08:52:05.656Z,5.80
2018-01-10T08:53:05.574Z,5.40
2018-01-10T08:54:05.537Z,5.90
2018-01-10T08:55:05.500Z,6.00
2018-01-10T08:56:05.458Z,4.50
2018-01-10T08:57:05.422Z,5.60
2018-01-10T08:58:05.382Z,5.50
2018-01-10T08:59:05.346Z,5.50
2018-01-10T09:00:05.304Z,5.50
2018-01-10T09:01:05.265Z,5.90
2018-01-10T09:02:05.227Z,5.80
2018-01-10T09:03:05.189Z,5.40
2018-01-10T09:04:05.148Z,5.30
2018-01-10T09:05:05.112Z,5.60
2018-01-10T09:06:05.073Z,5.70
2018-01-10T09:07:05.036Z,5.20
2018-01-10T09:08:04.996Z,5.10
2018-01-10T09:09:04.956Z,5.60
2018-01-10T09:10:04.918Z,5.20
2018-01-10T09:11:04.879Z,5.60
2018-01-10T09:12:04.841Z,5.30
2018-01-10T09:13:04.802Z,5.30
2018-01-10T09:14:04.762Z,5.40
2018-01-10T09:15:04.728Z,5.40
2018-01-10T09:16:04.686Z,4.20
2018-01-10T09:17:04.648Z,4.30
2018-01-10T09:18:04.611Z,4.20
2018-01-10T09:19:04.574Z,4.30
2018-01-10T09:20:04.533Z,4.40
2018-01-10T09:21:04.495Z,4.80
2018-01-10T09:22:04.458Z,4.20
2018-01-10T09:23:04.425Z,4.50
2018-01-10T09:24:04.382Z,4.20
2018-01-10T09:25:04.342Z,4.40
2018-01-10T09:26:04.303Z,4.20
2018-01-10T09:27:04.266Z,11.30
2018-01-10T09:28:04.230Z,6.60
2018-01-10T09:29:04.188Z,5.20
2018-01-10T09:30:04.156Z,6.00
2018-01-10T09:31:04.115Z,4.90
2018-01-10T09:32:04.092Z,4.80
2018-01-10T09:33:06.859Z,5.70
2018-01-10T09:34:03.999Z,5.20
2018-01-10T09:35:03.962Z,4.80
2018-01-10T09:36:03.927Z,4.20
2018-01-10T09:37:03.885Z,4.20
2018-01-10T09:38:03.847Z,5.00
2018-01-10T09:39:03.808Z,4.90
2018-01-10T09:40:03.821Z,4.60
2018-01-10T09:41:03.736Z,4.80
2018-01-10T09:42:03.696Z,4.40
2018-01-10T09:43:03.661Z,4.80
2018-01-10T09:44:03.620Z,5.70
2018-01-10T09:45:03.584Z,4.90
2018-01-10T09:46:03.544Z,4.60
2018-01-10T09:47:03.509Z,4.90
2018-01-10T09:48:03.472Z,4.50
2018-01-10T09:49:03.434Z,4.80
2018-01-10T09:50:03.396Z,4.40
2018-01-10T09:51:03.360Z,4.60
2018-01-10T09:52:03.324Z,5.10
2018-01-10T09:53:03.285Z,5.00
2018-01-10T09:54:03.247Z,4.70
2018-01-10T09:55:03.212Z,5.00
2018-01-10T09:56:03.172Z,4.50
2018-01-10T09:57:03.138Z,4.80
2018-01-10T09:58:03.097Z,5.40
2018-01-10T09:59:03.062Z,5.20
2018-01-10T10:00:03.027Z,4.70
2018-01-10T10:01:02.986Z,5.00
2018-01-10T10:02:03.802Z,4.50
2018-01-10T10:03:02.918Z,4.00
2018-01-10T10:04:02.876Z,4.30
2018-01-10T10:05:02.838Z,4.70
2018-01-10T10:06:02.803Z,4.90
2018-01-10T10:07:02.765Z,4.50
2018-01-10T10:08:02.728Z,4.20
2018-01-10T10:09:02.689Z,4.90
2018-01-10T10:10:02.822Z,4.90
2018-01-10T10:11:02.619Z,4.70
2018-01-10T10:12:02.579Z,4.40
2018-01-10T10:13:02.540Z,4.40
2018-01-10T10:14:02.507Z,4.50
2018-01-10T10:15:02.473Z,4.80
2018-01-10T10:16:02.432Z,4.80
2018-01-10T10:17:03.145Z,4.50
2018-01-10T10:18:02.358Z,5.10
2018-01-10T10:19:02.324Z,4.70
2018-01-10T10:20:02.284Z,4.60
2018-01-10T10:21:02.247Z,4.90
2018-01-10T10:22:02.212Z,4.80
2018-01-10T10:23:02.172Z,5.10
2018-01-10T10:24:02.135Z,5.00
2018-01-10T10:25:02.099Z,5.40
2018-01-10T10:26:02.061Z,4.90
2018-01-10T10:27:02.025Z,4.50
2018-01-10T10:28:01.985Z,5.10
2018-01-10T10:29:01.951Z,4.60
2018-01-10T10:30:01.913Z,4.30
2018-01-10T10:31:01.881Z,4.50
2018-01-10T10:32:01.837Z,4.50
2018-01-10T10:33:01.801Z,4.30
2018-01-10T10:34:01.763Z,4.60
2018-01-10T10:35:01.738Z,5.20
2018-01-10T10:36:01.723Z,4.90
2018-01-10T10:37:01.656Z,4.50
2018-01-10T10:38:01.627Z,4.20
2018-01-10T10:39:01.593Z,4.70
2018-01-10T10:40:01.540Z,4.20
2018-01-10T10:41:01.503Z,5.10
2018-01-10T10:42:01.467Z,4.10
2018-01-10T10:43:01.428Z,4.40
2018-01-10T10:44:01.394Z,5.10
2018-01-10T10:45:01.359Z,4.60
2018-01-10T10:46:01.320Z,4.70
2018-01-10T10:47:01.288Z,4.80
2018-01-10T10:48:01.262Z,5.10
2018-01-10T10:49:01.225Z,5.00
2018-01-10T10:50:01.171Z,4.30
2018-01-10T10:51:01.147Z,5.40
2018-01-10T10:52:01.113Z,5.60
2018-01-10T10:53:01.058Z,4.80
2018-01-10T10:54:01.034Z,5.00
2018-01-10T10:55:00.984Z,4.70
2018-01-10T10:56:00.948Z,4.40
2018-01-10T10:57:00.910Z,4.80
2018-01-10T10:58:00.874Z,4.80
2018-01-10T10:59:00.838Z,5.50
2018-01-10T11:00:00.849Z,4.90
2018-01-10T11:01:00.761Z,4.80
2018-01-10T11:02:00.746Z,5.50
2018-01-10T11:03:00.692Z,4.20
2018-01-10T11:04:00.650Z,4.20
2018-01-10T11:05:00.624Z,4.60
2018-01-10T11:06:00.584Z,4.00
2018-01-10T11:07:00.564Z,4.90
2018-01-10T11:08:00.509Z,4.80
2018-01-10T11:09:00.543Z,5.10
2018-01-10T11:10:00.428Z,4.60
2018-01-10T11:11:00.394Z,4.40
2018-01-10T11:12:00.354Z,4.80
2018-01-10T11:13:00.319Z,4.40
2018-01-10T11:14:00.302Z,4.90
2018-01-10T11:15:00.245Z,4.20
2018-01-10T11:16:00.204Z,4.20
2018-01-10T11:17:00.205Z,4.30
2018-01-10T11:18:00.133Z,4.60
2018-01-10T11:19:00.105Z,4.00
2018-01-10T11:20:00.062Z,4.70
2018-01-10T11:21:00.026Z,4.70
2018-01-10T11:21:59.990Z,4.50
2018-01-10T11:22:59.947Z,4.50
2018-01-10T11:23:59.923Z,4.70
2018-01-10T11:24:59.892Z,4.40
2018-01-10T11:25:59.851Z,4.20
2018-01-10T11:26:59.807Z,4.30
2018-01-10T11:27:59.766Z,4.10
2018-01-10T11:28:59.748Z,4.50
2018-01-10T11:29:59.741Z,4.40
2018-01-10T11:30:59.662Z,4.50
2018-01-10T11:31:59.621Z,4.40
2018-01-10T11:32:59.609Z,4.00
2018-01-10T11:33:59.556Z,4.00
2018-01-10T11:34:59.530Z,4.20
2018-01-10T11:35:59.497Z,4.40
2018-01-10T11:36:59.442Z,4.20
2018-01-10T11:37:59.410Z,4.60
2018-01-10T11:38:59.404Z,4.00
2018-01-10T11:39:59.343Z,4.70
2018-01-10T11:40:59.300Z,4.20
2018-01-10T11:41:59.328Z,4.10
2018-01-10T11:42:59.232Z,4.90
2018-01-10T11:43:59.240Z,4.60
2018-01-10T11:44:59.192Z,4.00
2018-01-10T11:45:59.147Z,4.60
2018-01-10T11:46:59.090Z,4.70
2018-01-10T11:47:59.081Z,4.40
2018-01-10T11:48:59.035Z,4.30
2018-01-10T11:49:58.987Z,5.00
2018-01-10T11:50:59.006Z,4.50
2018-01-10T11:51:58.912Z,4.40
2018-01-10T11:52:58.929Z,4.20
2018-01-10T11:53:58.850Z,4.30
2018-01-10T11:54:58.809Z,4.80
2018-01-10T11:55:58.773Z,4.50
2018-01-10T11:56:58.773Z,4.60
2018-01-10T11:57:58.705Z,4.50
2018-01-10T11:58:58.666Z,4.20
2018-01-10T11:59:58.635Z,4.40
2018-01-10T12:00:58.596Z,4.00
2018-01-10T12:01:58.559Z,4.30
2018-01-10T12:02:58.524Z,4.40
2018-01-10T12:03:58.490Z,4.10
2018-01-10T12:04:58.496Z,4.50
2018-01-10T12:05:58.417Z,4.10
2018-01-10T12:06:58.389Z,4.10
2018-01-10T12:07:58.866Z,3.70
2018-01-10T12:08:58.311Z,3.90
2018-01-10T12:09:58.300Z,4.20
2018-01-10T12:10:58.244Z,4.00
2018-01-10T12:11:58.214Z,4.10
2018-01-10T12:12:58.167Z,4.20
2018-01-10T12:13:58.176Z,4.40
2018-01-10T12:14:58.105Z,4.60
2018-01-10T12:15:58.061Z,4.30
2018-01-10T12:16:58.039Z,4.20
2018-01-10T12:17:57.981Z,4.20
2018-01-10T12:18:57.959Z,4.10
2018-01-10T12:19:57.913Z,4.40
2018-01-10T12:20:57.905Z,4.10
2018-01-10T12:21:57.840Z,4.60
2018-01-10T12:22:57.844Z,4.40
2018-01-10T12:23:57.767Z,4.10
2018-01-10T12:24:57.728Z,4.30
2018-01-10T12:25:57.696Z,4.20
2018-01-10T12:26:57.671Z,4.70
2018-01-10T12:27:57.647Z,4.10
2018-01-10T12:28:57.594Z,4.40
2018-01-10T12:29:57.551Z,4.70
2018-01-10T12:30:57.512Z,4.40
2018-01-10T12:31:57.481Z,4.90
2018-01-10T12:32:57.517Z,4.90
2018-01-10T12:33:57.426Z,4.60
2018-01-10T12:34:57.368Z,5.10
2018-01-10T12:35:57.331Z,4.60
2018-01-10T12:36:57.319Z,4.20
2018-01-10T12:37:57.258Z,4.90
2018-01-10T12:38:57.221Z,4.50
2018-01-10T12:39:57.185Z,5.10
2018-01-10T12:40:57.156Z,5.00
2018-01-10T12:41:57.108Z,5.10
2018-01-10T12:42:57.078Z,4.50
2018-01-10T12:43:57.036Z,4.60
2018-01-10T12:44:57.031Z,4.60
2018-01-10T12:45:56.968Z,5.10
2018-01-10T12:46:56.953Z,5.10
2018-01-10T12:47:56.910Z,4.20
2018-01-10T12:48:56.863Z,5.10
2018-01-10T12:49:56.838Z,5.80
2018-01-10T12:50:56.818Z,5.20
2018-01-10T12:51:56.766Z,4.60
2018-01-10T12:52:56.730Z,4.90
2018-01-10T12:53:56.676Z,4.90
2018-01-10T12:54:56.666Z,5.20
2018-01-10T12:55:56.599Z,4.40
2018-01-10T12:56:56.788Z,4.60
2018-01-10T12:57:56.530Z,4.40
2018-01-10T12:58:56.518Z,5.20
2018-01-10T12:59:56.453Z,4.90
2018-01-10T13:00:56.457Z,5.20
2018-01-10T13:01:56.391Z,4.30
2018-01-10T13:02:56.351Z,4.30
2018-01-10T13:03:56.317Z,4.20
2018-01-10T13:04:56.275Z,4.70
2018-01-10T13:05:56.238Z,4.70